Time;durP1;ratioP1;P1;durP2;ratioP2;P2;SDS_P1;SDS_P2;PMS_P1;PMS_P2;Temp;Humidity;BMP_temperature;BMP_pressure;BME280_temperature;BME280_humidity;BME280_pressure;Samples;Min_cycle;Max_cycle;Signal;HPM_P1;HPM_P2
2021/08/12 00:02:08;;;;;;;2.20;1.92;;;24.90;47.00;;;;;;5053280;28;20032;-60
2021/08/12 00:04:34;;;;;;;2.20;1.83;;;24.90;47.20;;;;;;5053247;28;20075;-58
2021/08/12 00:07:00;;;;;;;3.10;2.03;;;24.90;47.10;;;;;;5052260;28;20459;-60
2021/08/12 00:09:26;;;;;;;2.75;1.73;;;24.90;47.10;;;;;;5053607;28;20588;-58
2021/08/12 00:11:52;;;;;;;1.88;1.70;;;24.80;47.10;;;;;;5052705;28;20100;-60
2021/08/12 00:14:17;;;;;;;2.20;1.83;;;24.90;47.20;;;;;;5053522;28;20352;-60
2021/08/12 00:16:43;;;;;;;2.15;1.90;;;24.90;47.20;;;;;;5054170;28;20025;-61
2021/08/12 00:19:12;;;;;;;2.30;1.80;;;24.80;47.20;;;;;;5053213;28;20035;-60
2021/08/12 00:21:39;;;;;;;1.90;1.70;;;24.80;47.20;;;;;;5053358;28;20017;-59
2021/08/12 00:24:06;;;;;;;2.55;2.10;;;24.80;47.20;;;;;;5053062;28;20051;-60
2021/08/12 00:26:32;;;;;;;2.85;2.03;;;24.80;47.20;;;;;;5052966;28;20031;-58
2021/08/12 00:28:58;;;;;;;2.38;2.17;;;24.80;47.30;;;;;;5034847;28;20118;-58
2021/08/12 00:31:25;;;;;;;2.30;2.00;;;24.80;47.30;;;;;;5034987;28;20036;-60
2021/08/12 00:33:50;;;;;;;2.97;2.08;;;24.80;47.40;;;;;;5035696;28;20021;-59
2021/08/12 00:36:16;;;;;;;2.80;2.05;;;24.80;47.40;;;;;;5052917;28;20112;-60
2021/08/12 00:38:43;;;;;;;2.97;2.28;;;24.80;47.40;;;;;;5034936;28;20438;-60
2021/08/12 00:41:10;;;;;;;2.08;1.88;;;24.80;47.50;;;;;;5034861;28;20029;-60
2021/08/12 00:43:36;;;;;;;2.63;2.25;;;24.70;47.40;;;;;;5036048;28;20471;-60
2021/08/12 00:46:02;;;;;;;2.65;1.90;;;24.80;47.50;;;;;;5052886;28;20040;-58
2021/08/12 00:48:28;;;;;;;2.42;2.00;;;24.70;48.10;;;;;;5034225;28;20448;-59
2021/08/12 00:50:56;;;;;;;2.63;2.00;;;24.70;47.50;;;;;;5034625;28;20033;-59
2021/08/12 00:53:21;;;;;;;2.75;2.30;;;24.70;47.60;;;;;;5052568;28;20036;-58
2021/08/12 00:55:48;;;;;;;2.13;1.85;;;24.70;47.60;;;;;;5035037;28;20333;-57
2021/08/12 00:58:16;;;;;;;2.75;2.10;;;24.70;47.60;;;;;;5034194;28;20028;-57
2021/08/12 01:00:49;;;;;;;2.10;1.90;;;24.70;47.70;;;;;;5034133;28;20021;-59
2021/08/12 01:03:19;;;;;;;2.28;2.00;;;24.70;47.70;;;;;;5034796;28;20348;-61
2021/08/12 01:05:55;;;;;;;3.20;2.17;;;24.70;47.70;;;;;;5032910;28;20140;-60
2021/08/12 01:08:35;;;;;;;2.35;1.90;;;24.70;47.70;;;;;;5034340;28;20041;-60
2021/08/12 01:11:28;;;;;;;2.28;1.95;;;24.70;47.80;;;;;;5034531;28;20753;-59
2021/08/12 01:14:13;;;;;;;2.70;1.80;;;24.70;47.80;;;;;;5022478;28;20060;-59
2021/08/12 01:16:46;;;;;;;2.42;1.90;;;24.60;47.70;;;;;;5033815;28;20036;-60
2021/08/12 01:19:27;;;;;;;2.20;1.75;;;24.60;47.80;;;;;;5033473;28;20032;-58
2021/08/12 01:21:57;;;;;;;2.63;1.92;;;24.60;47.80;;;;;;5034388;28;20025;-59
2021/08/12 01:24:27;;;;;;;2.50;2.20;;;24.60;47.90;;;;;;5034129;28;20033;-60
2021/08/12 01:26:59;;;;;;;3.22;2.40;;;24.60;47.90;;;;;;5030613;28;20025;-60
2021/08/12 01:29:54;;;;;;;2.25;2.05;;;24.60;47.90;;;;;;5034013;28;20357;-59
2021/08/12 01:32:26;;;;;;;2.45;2.10;;;24.60;47.90;;;;;;5051696;28;20119;-60
2021/08/12 01:35:13;;;;;;;4.13;2.55;;;24.60;48.00;;;;;;5051710;28;20021;-60
2021/08/12 01:37:45;;;;;;;2.53;2.10;;;24.60;48.00;;;;;;5034230;28;20063;-60
2021/08/12 01:40:14;;;;;;;3.28;2.10;;;24.60;48.10;;;;;;5034324;28;20095;-61
2021/08/12 01:42:43;;;;;;;2.10;1.73;;;24.50;48.00;;;;;;5031318;28;20044;-60
2021/08/12 01:45:13;;;;;;;2.60;2.20;;;24.50;48.10;;;;;;5034391;28;20512;-58
2021/08/12 01:47:42;;;;;;;2.30;1.85;;;24.50;48.10;;;;;;5033191;28;20033;-58
2021/08/12 01:50:13;;;;;;;2.30;2.10;;;24.50;48.10;;;;;;5052175;28;20037;-60
2021/08/12 01:52:43;;;;;;;2.50;1.95;;;24.50;48.10;;;;;;5033543;28;20089;-59
2021/08/12 01:55:10;;;;;;;2.60;2.40;;;24.50;48.10;;;;;;5033795;28;20061;-58
2021/08/12 01:57:43;;;;;;;2.15;1.95;;;24.50;48.10;;;;;;5034312;28;20020;-59
2021/08/12 02:00:10;;;;;;;2.15;1.90;;;24.50;48.10;;;;;;5034134;28;20456;-59
2021/08/12 02:02:44;;;;;;;2.75;2.20;;;24.50;48.10;;;;;;5051908;28;20369;-59
2021/08/12 02:05:14;;;;;;;2.50;2.20;;;24.50;48.10;;;;;;5034328;28;20021;-60
2021/08/12 02:07:45;;;;;;;2.45;2.17;;;24.40;48.10;;;;;;5034025;28;20028;-60
2021/08/12 02:10:12;;;;;;;4.10;2.28;;;24.50;48.10;;;;;;5033704;28;20037;-58
2021/08/12 02:12:39;;;;;;;2.20;1.70;;;24.40;48.10;;;;;;5033683;28;20075;-61
2021/08/12 02:15:07;;;;;;;2.42;2.08;;;24.40;48.10;;;;;;5033858;28;20507;-58
2021/08/12 02:17:33;;;;;;;2.60;2.20;;;24.40;48.10;;;;;;5033173;28;20017;-60
2021/08/12 02:20:02;;;;;;;2.42;1.90;;;24.40;48.10;;;;;;5033456;28;20111;-60
2021/08/12 02:22:33;;;;;;;2.30;1.88;;;24.40;48.20;;;;;;5033426;28;20028;-59
2021/08/12 02:25:11;;;;;;;2.67;2.08;;;24.40;48.20;;;;;;5051701;28;20140;-60
2021/08/12 02:27:47;;;;;;;3.20;2.17;;;24.40;48.10;;;;;;5034652;28;20468;-60
2021/08/12 02:30:15;;;;;;;2.80;2.13;;;24.40;48.20;;;;;;5038214;28;20029;-58
2021/08/12 02:32:46;;;;;;;2.33;2.13;;;24.40;48.30;;;;;;5037912;28;20025;-59
2021/08/12 02:35:12;;;;;;;2.83;2.10;;;24.40;48.30;;;;;;5037563;28;20064;-61
2021/08/12 02:37:39;;;;;;;2.30;2.10;;;24.40;48.40;;;;;;5055083;28;20079;-61
2021/08/12 02:40:07;;;;;;;2.97;2.17;;;24.40;48.40;;;;;;5037289;28;20108;-59
2021/08/12 02:42:37;;;;;;;2.30;1.80;;;24.40;48.40;;;;;;5055197;28;20021;-60
2021/08/12 02:45:05;;;;;;;2.50;2.30;;;24.30;48.40;;;;;;5055223;28;20098;-59
2021/08/12 02:47:32;;;;;;;2.60;2.20;;;24.30;48.40;;;;;;5036968;28;20505;-61
2021/08/12 02:50:01;;;;;;;2.53;2.03;;;24.30;48.40;;;;;;5037132;28;20356;-61
2021/08/12 02:52:27;;;;;;;3.00;2.30;;;24.30;48.40;;;;;;5037399;28;20435;-61
2021/08/12 02:54:53;;;;;;;2.53;2.05;;;24.30;48.40;;;;;;5037231;28;20024;-58
2021/08/12 02:57:20;;;;;;;2.22;1.83;;;24.30;48.50;;;;;;5054759;28;20029;-60
2021/08/12 02:59:48;;;;;;;2.58;2.20;;;24.30;48.50;;;;;;5037147;28;20053;-59
2021/08/12 03:02:17;;;;;;;2.50;2.20;;;24.30;48.50;;;;;;5054767;28;20048;-59
2021/08/12 03:04:44;;;;;;;2.92;2.42;;;24.30;48.50;;;;;;5036688;28;20110;-60
2021/08/12 03:07:12;;;;;;;2.65;2.17;;;24.30;48.50;;;;;;5035528;28;20033;-61
2021/08/12 03:09:40;;;;;;;2.72;2.17;;;24.30;48.60;;;;;;5054404;28;20033;-60
2021/08/12 03:12:07;;;;;;;2.85;2.20;;;24.30;48.60;;;;;;5036194;28;20112;-60
2021/08/12 03:14:35;;;;;;;3.30;2.60;;;24.30;48.70;;;;;;5036743;28;20060;-59
2021/08/12 03:17:03;;;;;;;2.70;2.33;;;24.30;48.70;;;;;;5036621;28;20032;-60
2021/08/12 03:19:29;;;;;;;3.03;2.13;;;24.30;48.80;;;;;;5037098;28;20090;-58
2021/08/12 03:22:03;;;;;;;2.58;2.30;;;24.30;48.80;;;;;;5054659;28;20041;-59
2021/08/12 03:24:32;;;;;;;2.42;2.05;;;24.20;48.80;;;;;;5036033;28;20068;-60
2021/08/12 03:26:58;;;;;;;3.00;2.05;;;24.20;49.40;;;;;;5036795;28;20033;-57
2021/08/12 03:29:24;;;;;;;2.65;2.20;;;24.30;48.90;;;;;;5036449;28;20456;-60
2021/08/12 03:31:50;;;;;;;2.33;2.13;;;24.20;48.90;;;;;;5037413;28;20116;-60
2021/08/12 03:34:16;;;;;;;2.92;2.25;;;24.20;48.90;;;;;;5054465;28;20108;-59
2021/08/12 03:36:42;;;;;;;2.33;1.70;;;24.20;48.90;;;;;;5035976;28;20033;-59
2021/08/12 03:39:08;;;;;;;2.78;2.08;;;24.20;48.90;;;;;;5053679;28;20099;-58
2021/08/12 03:41:34;;;;;;;2.05;1.85;;;24.20;49.00;;;;;;5036172;28;20459;-59
2021/08/12 03:44:01;;;;;;;2.72;2.40;;;24.20;48.90;;;;;;5036313;28;20021;-59
2021/08/12 03:46:28;;;;;;;3.75;2.03;;;24.20;49.00;;;;;;5036417;28;20112;-59
2021/08/12 03:48:54;;;;;;;2.47;2.05;;;24.20;49.00;;;;;;5036488;28;20025;-59
2021/08/12 03:51:20;;;;;;;2.30;2.10;;;24.20;49.00;;;;;;5036553;28;20040;-58
2021/08/12 03:53:46;;;;;;;2.60;2.10;;;24.20;49.00;;;;;;5035896;28;20128;-59
2021/08/12 03:56:11;;;;;;;2.22;1.95;;;24.20;49.00;;;;;;5036237;28;20021;-60
2021/08/12 03:58:37;;;;;;;2.75;2.30;;;24.20;49.00;;;;;;5036141;28;20032;-59
2021/08/12 04:01:04;;;;;;;2.20;2.00;;;24.20;49.00;;;;;;5053930;28;20029;-59
2021/08/12 04:03:29;;;;;;;2.88;2.35;;;24.20;49.00;;;;;;5036088;28;20329;-60
2021/08/12 04:05:55;;;;;;;2.47;2.17;;;24.20;49.10;;;;;;5036184;28;20360;-59
2021/08/12 04:08:21;;;;;;;2.10;1.90;;;24.10;49.00;;;;;;5035444;28;20032;-61
2021/08/12 04:10:47;;;;;;;2.92;2.20;;;24.10;49.00;;;;;;5035935;28;20175;-60
2021/08/12 04:13:13;;;;;;;2.53;2.33;;;24.10;49.00;;;;;;5035629;28;20068;-60
2021/08/12 04:15:39;;;;;;;2.75;2.30;;;24.10;49.00;;;;;;5035390;28;20464;-60
2021/08/12 04:18:04;;;;;;;2.80;2.47;;;24.10;49.00;;;;;;5035361;28;20083;-60
2021/08/12 04:20:30;;;;;;;2.28;2.00;;;24.10;49.00;;;;;;5035818;28;20029;-59
2021/08/12 04:22:56;;;;;;;2.45;2.08;;;24.10;49.00;;;;;;5035452;28;20033;-61
2021/08/12 04:25:22;;;;;;;4.60;2.00;;;24.10;48.90;;;;;;5035118;28;20029;-60
2021/08/12 04:27:48;;;;;;;2.35;2.15;;;24.20;49.00;;;;;;5034889;28;20029;-59
2021/08/12 04:30:15;;;;;;;2.33;2.13;;;24.10;48.90;;;;;;5035116;28;20048;-58
2021/08/12 04:32:41;;;;;;;3.38;2.40;;;24.10;48.90;;;;;;5053035;28;20033;-60
2021/08/12 04:35:08;;;;;;;3.20;2.70;;;24.10;48.90;;;;;;5032980;28;20059;-61
2021/08/12 04:37:42;;;;;;;2.55;2.10;;;24.10;48.90;;;;;;5034798;28;20017;-62
2021/08/12 04:40:10;;;;;;;2.75;2.22;;;24.10;48.90;;;;;;5035320;28;20025;-61
2021/08/12 04:42:36;;;;;;;2.30;2.10;;;24.10;49.30;;;;;;5053021;28;20033;-60
2021/08/12 04:45:02;;;;;;;2.30;2.10;;;24.10;48.90;;;;;;5034953;28;20444;-60
2021/08/12 04:47:29;;;;;;;2.55;2.08;;;24.10;48.90;;;;;;5035455;28;20032;-58
2021/08/12 04:49:54;;;;;;;2.58;2.10;;;24.10;48.90;;;;;;5050989;28;20036;-60
2021/08/12 04:52:20;;;;;;;2.28;2.08;;;24.10;48.90;;;;;;5035135;28;20021;-58
2021/08/12 04:54:46;;;;;;;2.33;2.03;;;24.10;48.90;;;;;;5034108;28;20021;-60
2021/08/12 04:57:12;;;;;;;2.63;2.13;;;24.10;48.90;;;;;;5053076;28;20029;-59
2021/08/12 04:59:38;;;;;;;2.10;1.90;;;24.10;48.90;;;;;;5034289;28;20138;-59
2021/08/12 05:02:04;;;;;;;2.85;2.40;;;24.10;48.90;;;;;;5034869;28;20116;-60
2021/08/12 05:04:30;;;;;;;2.70;2.20;;;24.10;48.90;;;;;;5034348;28;20036;-59
2021/08/12 05:06:55;;;;;;;2.80;2.35;;;24.00;48.90;;;;;;5034860;28;20029;-59
2021/08/12 05:09:21;;;;;;;3.28;2.42;;;24.10;49.60;;;;;;5034479;28;20044;-59
2021/08/12 05:11:48;;;;;;;2.83;2.20;;;24.10;49.00;;;;;;5034951;28;20112;-60
2021/08/12 05:14:14;;;;;;;3.20;2.25;;;24.00;48.90;;;;;;5034219;28;20413;-58
2021/08/12 05:16:40;;;;;;;2.72;2.33;;;24.00;48.90;;;;;;5034063;28;20032;-59
2021/08/12 05:19:06;;;;;;;2.50;2.10;;;24.00;48.90;;;;;;5034224;28;20025;-60
2021/08/12 05:21:32;;;;;;;2.55;2.08;;;24.00;48.90;;;;;;5034502;28;20021;-58
2021/08/12 05:23:58;;;;;;;2.65;2.28;;;24.00;48.90;;;;;;5034960;28;20036;-59
2021/08/12 05:26:24;;;;;;;2.50;2.28;;;24.00;49.00;;;;;;5033926;28;20356;-59
2021/08/12 05:28:50;;;;;;;2.83;2.47;;;24.00;49.00;;;;;;5034465;28;20029;-58
2021/08/12 05:31:16;;;;;;;3.08;2.28;;;24.10;49.10;;;;;;5034446;28;20464;-59
2021/08/12 05:33:42;;;;;;;2.67;2.25;;;24.10;49.20;;;;;;5035090;28;20100;-60
2021/08/12 05:36:07;;;;;;;2.15;1.95;;;24.00;49.20;;;;;;5034042;28;20039;-60
2021/08/12 05:38:34;;;;;;;2.83;2.45;;;24.10;49.20;;;;;;5034577;28;20424;-60
2021/08/12 05:41:01;;;;;;;2.38;2.03;;;24.10;49.30;;;;;;5033980;28;20048;-59
2021/08/12 05:43:28;;;;;;;2.33;2.13;;;24.10;49.30;;;;;;5034403;28;20079;-59
2021/08/12 05:45:55;;;;;;;3.53;2.28;;;24.10;49.40;;;;;;5031403;28;20029;-60
2021/08/12 05:48:21;;;;;;;2.53;2.33;;;24.10;49.40;;;;;;5031712;28;20060;-59
2021/08/12 05:50:48;;;;;;;2.78;2.50;;;24.10;49.50;;;;;;5033991;28;20031;-58
2021/08/12 05:53:18;;;;;;;2.72;2.45;;;24.10;49.60;;;;;;5034197;28;20021;-60
2021/08/12 05:55:44;;;;;;;2.90;2.28;;;24.10;49.60;;;;;;5034553;28;20025;-58
2021/08/12 05:58:10;;;;;;;3.00;2.58;;;24.10;49.70;;;;;;5051725;28;20033;-59
2021/08/12 06:00:36;;;;;;;3.00;2.47;;;24.10;49.70;;;;;;5033949;28;20110;-58
2021/08/12 06:03:11;;;;;;;2.55;2.35;;;24.10;49.80;;;;;;5055376;28;20025;-59
2021/08/12 06:05:38;;;;;;;2.53;2.10;;;24.10;49.80;;;;;;5021068;28;20021;-60
2021/08/12 06:08:07;;;;;;;2.50;2.30;;;24.10;49.80;;;;;;5055986;28;20044;-58
2021/08/12 06:10:35;;;;;;;3.03;2.45;;;24.10;49.90;;;;;;5035650;28;20391;-59
2021/08/12 06:13:02;;;;;;;2.25;2.03;;;24.10;49.80;;;;;;5034761;28;20352;-60
2021/08/12 06:15:33;;;;;;;2.42;2.15;;;24.10;49.90;;;;;;5037152;28;20091;-60
2021/08/12 06:18:10;;;;;;;2.83;2.50;;;24.10;49.90;;;;;;5038107;28;20025;-60
2021/08/12 06:20:39;;;;;;;3.25;2.70;;;24.10;49.90;;;;;;5039162;28;20072;-61
2021/08/12 06:23:06;;;;;;;2.85;2.35;;;24.10;50.00;;;;;;5038660;28;20035;-61
2021/08/12 06:25:33;;;;;;;3.17;2.42;;;24.20;50.10;;;;;;5030572;28;20030;-61
2021/08/12 06:28:00;;;;;;;2.90;2.60;;;24.10;50.00;;;;;;5036834;28;20037;-59
2021/08/12 06:30:26;;;;;;;3.75;2.20;;;24.20;50.20;;;;;;5036180;28;20025;-60
2021/08/12 06:32:51;;;;;;;3.80;2.45;;;24.20;50.30;;;;;;5055728;28;20447;-58
2021/08/12 06:35:18;;;;;;;2.80;2.40;;;24.20;50.30;;;;;;5036785;28;20033;-58
2021/08/12 06:37:46;;;;;;;4.35;2.38;;;24.20;50.30;;;;;;5037051;28;20021;-54
2021/08/12 06:40:17;;;;;;;3.53;2.40;;;24.30;50.40;;;;;;5036952;28;20346;-60
2021/08/12 06:42:43;;;;;;;2.65;2.45;;;24.30;50.40;;;;;;5036556;28;20167;-60
2021/08/12 06:45:12;;;;;;;3.20;2.50;;;24.40;50.40;;;;;;5051467;28;20033;-61
2021/08/12 06:47:38;;;;;;;2.92;2.60;;;24.40;50.40;;;;;;5035437;28;20487;-59
2021/08/12 06:50:07;;;;;;;3.97;2.90;;;24.40;50.30;;;;;;5036031;28;20171;-60
2021/08/12 06:52:34;;;;;;;2.83;2.55;;;24.50;50.30;;;;;;5036723;28;20040;-60
2021/08/12 06:55:01;;;;;;;3.13;2.40;;;24.50;50.20;;;;;;5037400;28;20364;-60
2021/08/12 06:57:30;;;;;;;3.03;2.30;;;24.50;50.20;;;;;;5036160;28;20052;-61
2021/08/12 06:59:56;;;;;;;3.33;2.45;;;24.50;50.00;;;;;;5036643;28;20025;-61
2021/08/12 07:02:22;;;;;;;2.97;2.28;;;24.60;50.00;;;;;;5054322;28;20087;-61
2021/08/12 07:04:51;;;;;;;3.05;2.33;;;24.60;50.00;;;;;;5054810;28;20021;-62
2021/08/12 07:07:19;;;;;;;2.25;2.05;;;24.60;49.90;;;;;;5035958;28;20431;-59
2021/08/12 07:09:47;;;;;;;2.95;2.33;;;24.60;49.90;;;;;;5036359;28;20033;-61
2021/08/12 07:12:13;;;;;;;3.35;2.40;;;24.70;49.90;;;;;;5036533;28;20029;-59
2021/08/12 07:14:40;;;;;;;2.45;2.05;;;24.70;49.80;;;;;;5036659;28;20102;-60
2021/08/12 07:17:06;;;;;;;3.13;2.25;;;24.70;49.80;;;;;;5037459;28;20037;-62
2021/08/12 07:19:33;;;;;;;3.83;2.72;;;24.70;49.70;;;;;;5038221;28;20029;-60
2021/08/12 07:21:58;;;;;;;3.10;2.50;;;24.70;49.70;;;;;;5038038;28;20041;-62
2021/08/12 07:24:25;;;;;;;2.95;2.55;;;24.80;49.70;;;;;;5055660;28;20106;-59
2021/08/12 07:26:52;;;;;;;4.18;2.60;;;24.80;49.60;;;;;;5037375;28;20033;-60
2021/08/12 07:29:19;;;;;;;4.55;2.55;;;24.80;49.50;;;;;;5029624;28;20083;-60
2021/08/12 07:31:46;;;;;;;3.03;2.28;;;24.80;49.40;;;;;;5036337;28;20029;-58
2021/08/12 07:34:13;;;;;;;3.38;2.63;;;24.90;49.40;;;;;;5036293;28;20052;-61
2021/08/12 07:36:40;;;;;;;4.00;2.65;;;24.90;49.30;;;;;;5037171;28;20029;-61
2021/08/12 07:39:08;;;;;;;2.95;2.58;;;24.90;49.20;;;;;;5054214;28;20033;-58
2021/08/12 07:41:35;;;;;;;2.83;2.42;;;24.90;49.20;;;;;;5036252;28;20108;-59
2021/08/12 07:44:02;;;;;;;2.92;2.55;;;24.90;49.20;;;;;;5020561;28;20078;-59
2021/08/12 07:46:28;;;;;;;3.75;2.80;;;25.00;49.10;;;;;;5053817;28;20029;-58
2021/08/12 07:48:55;;;;;;;2.70;2.28;;;25.00;49.10;;;;;;5054779;28;20475;-59
2021/08/12 07:51:23;;;;;;;2.70;2.33;;;25.00;49.00;;;;;;5045555;28;20021;-61
2021/08/12 07:53:54;;;;;;;2.50;2.10;;;25.00;48.90;;;;;;5052937;28;20032;-61
2021/08/12 07:56:20;;;;;;;2.40;2.05;;;25.00;48.80;;;;;;5051906;28;20082;-57
2021/08/12 07:58:47;;;;;;;3.95;2.35;;;25.00;48.70;;;;;;5030378;28;20465;-60
2021/08/12 08:01:14;;;;;;;2.67;2.03;;;25.00;48.60;;;;;;5052159;28;20096;-56
2021/08/12 08:03:41;;;;;;;2.40;2.20;;;25.00;48.50;;;;;;5053026;28;20047;-61
2021/08/12 08:06:07;;;;;;;2.33;1.90;;;25.00;48.40;;;;;;5052869;28;20055;-62
2021/08/12 08:08:33;;;;;;;3.00;1.83;;;25.10;48.40;;;;;;5051117;28;20354;-60
2021/08/12 08:10:59;;;;;;;2.17;1.75;;;25.10;48.50;;;;;;5049570;28;20033;-61
2021/08/12 08:13:26;;;;;;;2.50;1.98;;;25.10;48.40;;;;;;5033372;28;20056;-59
2021/08/12 08:15:53;;;;;;;2.80;1.80;;;25.10;48.30;;;;;;5052733;28;20457;-60
2021/08/12 08:18:18;;;;;;;2.42;1.83;;;25.10;48.20;;;;;;5052515;28;20039;-59
2021/08/12 08:20:44;;;;;;;2.15;1.85;;;25.10;48.20;;;;;;5052164;28;20029;-57
2021/08/12 08:23:11;;;;;;;2.35;2.00;;;25.10;48.10;;;;;;5053787;28;20029;-61
2021/08/12 08:25:38;;;;;;;2.47;1.70;;;25.10;48.10;;;;;;5053604;28;20503;-58
2021/08/12 08:28:05;;;;;;;2.38;1.92;;;25.10;48.00;;;;;;5054059;28;20091;-58
2021/08/12 08:30:32;;;;;;;2.00;1.65;;;25.10;48.00;;;;;;5054389;28;20479;-59
2021/08/12 08:32:59;;;;;;;3.38;1.60;;;25.10;47.90;;;;;;5054466;28;20037;-60
2021/08/12 08:35:25;;;;;;;1.85;1.65;;;25.10;47.90;;;;;;5053660;28;20045;-62
2021/08/12 08:37:58;;;;;;;2.25;1.65;;;25.10;47.80;;;;;;5036896;28;20360;-62
2021/08/12 08:40:25;;;;;;;1.73;1.52;;;25.20;47.90;;;;;;5053614;28;20065;-57
2021/08/12 08:42:51;;;;;;;2.13;1.65;;;25.10;47.80;;;;;;5053624;28;20409;-58
2021/08/12 08:45:25;;;;;;;2.35;1.60;;;25.10;47.80;;;;;;5048880;28;20422;-59
2021/08/12 08:47:53;;;;;;;2.00;1.52;;;25.20;47.70;;;;;;5054022;28;20318;-57
2021/08/12 08:50:20;;;;;;;2.00;1.52;;;25.20;47.70;;;;;;5053803;28;20365;-56
2021/08/12 08:52:47;;;;;;;2.20;1.95;;;25.20;47.70;;;;;;5054213;28;20021;-57
2021/08/12 08:55:21;;;;;;;2.30;1.70;;;25.20;47.70;;;;;;5035726;28;20336;-61
2021/08/12 08:57:52;;;;;;;1.63;1.40;;;25.20;47.60;;;;;;5053837;28;20116;-60
2021/08/12 09:00:18;;;;;;;2.50;1.83;;;25.20;47.60;;;;;;5053160;28;20413;-59
2021/08/12 09:02:48;;;;;;;2.22;1.58;;;25.20;47.60;;;;;;5053688;28;20112;-61
2021/08/12 09:05:15;;;;;;;1.90;1.52;;;25.20;47.50;;;;;;5053268;28;20400;-58
2021/08/12 09:07:42;;;;;;;2.05;1.58;;;25.20;47.50;;;;;;5053931;28;20119;-61
2021/08/12 09:10:08;;;;;;;1.75;1.40;;;25.20;47.50;;;;;;5053517;28;20114;-59
2021/08/12 09:12:36;;;;;;;2.10;1.55;;;25.20;47.50;;;;;;5052817;28;20417;-59
2021/08/12 09:15:08;;;;;;;2.15;1.77;;;25.20;47.50;;;;;;5035596;28;20057;-60
2021/08/12 09:17:34;;;;;;;1.60;1.42;;;25.20;47.50;;;;;;5053886;28;20475;-61
2021/08/12 09:20:15;;;;;;;2.22;1.65;;;25.20;47.40;;;;;;5035779;28;20052;-60
2021/08/12 09:22:49;;;;;;;1.73;1.30;;;25.20;47.40;;;;;;5042641;28;20048;-59
2021/08/12 09:25:17;;;;;;;1.48;1.38;;;25.20;47.40;;;;;;5050564;28;20456;-59
2021/08/12 09:27:43;;;;;;;2.33;1.60;;;25.20;47.40;;;;;;5053439;28;20020;-60
2021/08/12 09:30:15;;;;;;;1.63;1.40;;;25.20;47.30;;;;;;5053464;28;20063;-58
2021/08/12 09:32:49;;;;;;;2.88;1.80;;;25.30;47.30;;;;;;5053578;28;20044;-61
2021/08/12 09:35:26;;;;;;;1.58;1.45;;;25.30;47.30;;;;;;5048492;28;20045;-59
2021/08/12 09:37:52;;;;;;;2.40;1.50;;;25.30;47.30;;;;;;5059006;28;20043;-61
2021/08/12 09:40:25;;;;;;;2.13;1.50;;;25.30;47.30;;;;;;5060241;28;20405;-56
2021/08/12 09:43:13;;;;;;;2.20;1.60;;;25.30;47.20;;;;;;5059750;28;20040;-60
2021/08/12 09:45:40;;;;;;;2.15;1.50;;;25.30;47.20;;;;;;5059889;28;20360;-55
2021/08/12 09:48:14;;;;;;;2.70;1.45;;;25.30;47.20;;;;;;5059587;28;20460;-57
2021/08/12 09:50:44;;;;;;;1.48;1.35;;;25.30;47.20;;;;;;5059610;28;20387;-59
2021/08/12 09:53:18;;;;;;;1.85;1.40;;;25.30;47.20;;;;;;5041818;28;20021;-59
2021/08/12 09:55:45;;;;;;;1.50;1.40;;;25.30;47.10;;;;;;5052275;28;20614;-60
2021/08/12 09:58:12;;;;;;;1.73;1.48;;;25.30;47.70;;;;;;5059872;28;20025;-55
2021/08/12 10:00:48;;;;;;;2.88;1.73;;;25.30;47.10;;;;;;5059296;28;20159;-58
2021/08/12 10:03:24;;;;;;;1.83;1.70;;;25.40;47.10;;;;;;5041286;28;20025;-59
2021/08/12 10:05:52;;;;;;;1.57;1.40;;;25.30;47.10;;;;;;5057412;28;20041;-59
2021/08/12 10:08:32;;;;;;;1.50;1.40;;;25.40;47.20;;;;;;5059249;28;20055;-57
2021/08/12 10:11:28;;;;;;;1.65;1.40;;;25.40;47.10;;;;;;5040440;28;20044;-60
2021/08/12 10:14:04;;;;;;;1.63;1.38;;;25.40;47.10;;;;;;5056652;28;20374;-56
2021/08/12 10:16:34;;;;;;;1.40;1.30;;;25.40;47.10;;;;;;5040114;28;20043;-60
2021/08/12 10:19:01;;;;;;;1.65;1.30;;;25.40;47.00;;;;;;5059745;28;20395;-58
2021/08/12 10:21:28;;;;;;;6.75;1.55;;;25.40;47.00;;;;;;5059202;28;20071;-61
2021/08/12 10:24:00;;;;;;;2.40;1.55;;;25.40;47.00;;;;;;5059330;28;20086;-60
2021/08/12 10:26:27;;;;;;;2.00;1.63;;;25.40;47.00;;;;;;5059349;28;20071;-59
2021/08/12 10:28:59;;;;;;;1.58;1.23;;;25.40;47.00;;;;;;5059043;28;20047;-58
2021/08/12 10:31:28;;;;;;;2.28;1.90;;;25.40;47.00;;;;;;5060070;28;20036;-60
2021/08/12 10:33:57;;;;;;;2.10;1.65;;;25.50;47.10;;;;;;5057752;28;20028;-59
2021/08/12 10:36:24;;;;;;;2.08;1.67;;;25.50;47.10;;;;;;5058703;28;20029;-59
2021/08/12 10:38:51;;;;;;;1.70;1.38;;;25.50;47.10;;;;;;5041533;28;20029;-60
2021/08/12 10:41:17;;;;;;;1.95;1.70;;;25.40;46.90;;;;;;5059217;28;20024;-60
2021/08/12 10:43:46;;;;;;;1.55;1.45;;;25.50;47.00;;;;;;5058842;28;20029;-59
2021/08/12 10:46:12;;;;;;;2.10;1.48;;;25.50;47.10;;;;;;5042243;28;20071;-57
2021/08/12 10:48:38;;;;;;;3.28;1.60;;;25.50;47.10;;;;;;5056546;28;20526;-55
2021/08/12 10:51:10;;;;;;;2.58;1.77;;;25.50;47.10;;;;;;5056355;28;20050;-58
2021/08/12 10:53:37;;;;;;;1.80;1.40;;;25.60;47.10;;;;;;5055827;28;20527;-57
2021/08/12 10:56:05;;;;;;;2.17;1.70;;;25.50;47.00;;;;;;5055461;28;20082;-57
2021/08/12 10:58:32;;;;;;;1.73;1.50;;;25.60;47.10;;;;;;5055968;28;20078;-61
2021/08/12 11:01:07;;;;;;;2.53;1.70;;;25.60;47.10;;;;;;5055856;28;20072;-58
2021/08/12 11:03:36;;;;;;;2.58;1.80;;;25.60;47.10;;;;;;5038410;28;20116;-57
2021/08/12 11:06:05;;;;;;;2.83;1.85;;;25.60;47.20;;;;;;5037262;28;20394;-56
2021/08/12 11:08:49;;;;;;;2.22;1.70;;;25.60;47.40;;;;;;5035832;28;20055;-60
2021/08/12 11:11:15;;;;;;;;;;;25.60;47.40;;;;;;5036938;28;20037;-57
2021/08/12 11:13:41;;;;;;;2.25;1.60;;;25.50;47.40;;;;;;5037392;28;20001;-61
2021/08/12 11:16:08;;;;;;;2.15;1.80;;;25.40;47.50;;;;;;5051699;28;20440;-60
2021/08/12 11:19:00;;;;;;;2.13;1.77;;;25.40;47.50;;;;;;5051738;28;20171;-60
2021/08/12 11:21:29;;;;;;;2.40;1.90;;;25.30;47.90;;;;;;5050811;28;20056;-59
2021/08/12 11:24:07;;;;;;;1.88;1.75;;;25.20;48.20;;;;;;5056509;28;20139;-57
2021/08/12 11:26:59;;;;;;;2.42;1.90;;;25.20;48.30;;;;;;5055431;28;20035;-59
2021/08/12 11:29:28;;;;;;;2.13;1.77;;;25.20;48.20;;;;;;5030319;28;20122;-61
2021/08/12 11:31:56;;;;;;;2.30;1.90;;;25.30;48.20;;;;;;5035137;28;20378;-61
2021/08/12 11:34:41;;;;;;;2.13;1.88;;;25.30;48.10;;;;;;5053331;28;20036;-58
2021/08/12 11:37:13;;;;;;;2.47;2.00;;;25.30;48.10;;;;;;5053542;28;20040;-59
2021/08/12 11:40:11;;;;;;;2.97;1.92;;;25.20;48.40;;;;;;5051218;28;20482;-53
2021/08/12 11:42:43;;;;;;;2.25;1.73;;;25.10;48.40;;;;;;4995639;28;20041;-57
2021/08/12 11:45:17;;;;;;;2.45;1.80;;;25.20;48.50;;;;;;5047931;28;20337;-60
2021/08/12 11:47:44;;;;;;;2.50;2.25;;;25.20;48.50;;;;;;5054613;28;20424;-58
2021/08/12 11:50:12;;;;;;;2.58;1.80;;;25.30;48.40;;;;;;5055130;28;20052;-53
2021/08/12 11:52:45;;;;;;;1.95;1.67;;;25.30;48.30;;;;;;5054120;28;20033;-58
2021/08/12 11:55:19;;;;;;;2.30;1.70;;;25.30;48.20;;;;;;5054540;28;20033;-60
2021/08/12 11:57:54;;;;;;;1.88;1.30;;;25.20;48.30;;;;;;5053175;28;20352;-60
2021/08/12 12:00:33;;;;;;;2.28;1.40;;;25.30;48.40;;;;;;5053039;28;20445;-61
2021/08/12 12:03:04;;;;;;;1.55;1.45;;;25.30;48.20;;;;;;5053520;28;20455;-61
2021/08/12 12:05:35;;;;;;;2.38;1.73;;;25.40;48.20;;;;;;5055139;28;20040;-61
2021/08/12 12:08:10;;;;;;;1.77;1.60;;;25.40;48.10;;;;;;5055125;28;20029;-61
2021/08/12 12:10:38;;;;;;;2.28;1.90;;;25.50;48.00;;;;;;5055209;28;20033;-58
2021/08/12 12:13:08;;;;;;;2.40;1.40;;;25.50;47.90;;;;;;5054236;28;20029;-58
2021/08/12 12:15:36;;;;;;;1.70;1.40;;;25.50;47.80;;;;;;5054707;28;20091;-61
2021/08/12 12:18:03;;;;;;;2.17;1.60;;;25.60;47.90;;;;;;5054473;28;20056;-60
2021/08/12 12:20:30;;;;;;;2.55;1.60;;;25.60;47.80;;;;;;5036143;28;20025;-61
2021/08/12 12:23:00;;;;;;;1.65;1.55;;;25.60;47.70;;;;;;5049147;28;20052;-57
2021/08/12 12:25:27;;;;;;;2.33;1.83;;;25.70;47.70;;;;;;5052376;28;20029;-58
2021/08/12 12:27:59;;;;;;;1.77;1.30;;;25.70;47.70;;;;;;5052951;28;20448;-60
2021/08/12 12:30:28;;;;;;;2.00;1.73;;;25.80;47.60;;;;;;5052873;28;20032;-61
2021/08/12 12:33:03;;;;;;;1.92;1.55;;;25.80;47.60;;;;;;5035445;28;20423;-59
2021/08/12 12:35:31;;;;;;;1.98;1.77;;;25.80;48.10;;;;;;5050987;28;20336;-61
2021/08/12 12:37:59;;;;;;;1.58;1.48;;;25.80;47.40;;;;;;5052345;28;20423;-60
2021/08/12 12:40:28;;;;;;;1.73;1.63;;;25.80;47.40;;;;;;5051807;28;20041;-58
2021/08/12 12:42:54;;;;;;;1.70;1.50;;;25.90;47.40;;;;;;5052877;28;20068;-61
2021/08/12 12:45:21;;;;;;;1.67;1.48;;;25.90;47.40;;;;;;5050848;28;20068;-60
2021/08/12 12:47:47;;;;;;;1.95;1.65;;;25.90;47.30;;;;;;5051439;28;20016;-60
2021/08/12 12:50:22;;;;;;;1.52;1.42;;;25.90;47.20;;;;;;5048121;28;20118;-57
2021/08/12 12:52:53;;;;;;;2.17;1.60;;;26.00;47.20;;;;;;5048862;28;20073;-62
2021/08/12 12:55:21;;;;;;;2.00;1.58;;;25.90;47.10;;;;;;5052130;28;20082;-57
2021/08/12 12:57:47;;;;;;;2.05;1.67;;;26.00;47.10;;;;;;5052073;28;20112;-59